Flight Track Log - Related Links

Times and Time Zones

All times are in EST time to prevent confusion due to time zone crossing. See the N989WU flight status page for this flight to view local times or setup timezone preferences in your user account.

Time Position Orientation Groundspeed Altitude Reporting Facility
EST Latitude Longitude Course Direction KTS MPH feet Rate Location/Type
Mon 10:30:11 PM 27.7500 -82.3333 222° Southwest 106 122 2,900  Level Tampa TRACON
Mon 10:31:11 PM 27.7333 -82.3333 180° South 90 104 3,600 694 Climbing Tampa TRACON
Mon 10:32:12 PM 27.7000 -82.3333 180° South 84 97 4,300 694 Climbing Tampa TRACON
Mon 10:33:12 PM 27.6833 -82.3167 138° Southeast 81 93 5,000 700 Climbing Tampa TRACON
Mon 10:34:12 PM 27.6667 -82.3167 180° South 76 87 5,700 650 Climbing Tampa TRACON
Mon 10:35:12 PM 27.6500 -82.3000 138° Southeast 77 89 6,300 600 Climbing Tampa TRACON
Mon 10:36:12 PM 27.6167 -82.3000 180° South 77 89 6,900 333 Climbing Tampa TRACON
Mon 10:37:18 PM 27.6000 -82.3000 180° South 83 96 7,000 48 Climbing Tampa TRACON
Mon 10:38:18 PM 27.5833 -82.3000 180° South 88 101 7,000 -48 Level Tampa TRACON
Mon 10:39:24 PM 27.5500 -82.3000 180° South 87 100 6,900  Descending Tampa TRACON
Mon 10:40:24 PM 27.5333 -82.3167 222° Southwest 88 101 7,000  Climbing Tampa TRACON
Mon 10:41:24 PM 27.5000 -82.3167 180° South 88 101 6,900  Descending Tampa TRACON
Mon 10:42:24 PM 27.4833 -82.3167 180° South 86 99 7,000  Climbing Tampa TRACON
Mon 10:43:30 PM 27.4500 -82.3167 180° South 79 91 6,900  Descending Tampa TRACON
Mon 10:44:30 PM 27.4333 -82.3167 180° South 83 96 7,000 50 Climbing Tampa TRACON
Mon 10:45:30 PM 27.4000 -82.3333 204° Southwest 84 97 7,000  Level Tampa TRACON
Mon 10:46:18 PM 27.3833 -82.3333 180° South 88 101 7,000 -56 Level Tampa TRACON
Mon 10:47:18 PM 27.3667 -82.3333 180° South 87 100 6,900 -52 Descending Tampa TRACON
Mon 10:48:13 PM 27.3500 -82.3333 180° South 85 98 6,900  Level Tampa TRACON
Mon 10:49:13 PM 27.3167 -82.3333 180° South 83 96 6,900  Level Tampa TRACON
Mon 10:50:13 PM 27.3000 -82.3333 180° South 87 100 6,900 50 Level Tampa TRACON
Mon 10:51:13 PM 27.2667 -82.3333 180° South 90 104 7,000 50 Climbing Tampa TRACON
Mon 10:52:13 PM 27.2500 -82.3333 180° South 83 96 7,000 -50 Level Tampa TRACON
Mon 10:53:13 PM 27.2167 -82.3333 180° South 87 100 6,900  Descending Tampa TRACON
Mon 10:54:13 PM 27.2000 -82.3333 180° South 88 101 7,000  Climbing Tampa TRACON
Mon 10:55:13 PM 27.1667 -82.3167 156° South 98 113 6,900  Descending Tampa TRACON
Mon 10:56:13 PM 27.1500 -82.3000 138° Southeast 96 110 7,000 50 Climbing Tampa TRACON
Mon 10:57:13 PM 27.1333 -82.2833 138° Southeast 96 110 7,000 -50 Level Tampa TRACON
Mon 10:58:13 PM 27.1000 -82.2833 180° South 98 113 6,900 -50 Descending Tampa TRACON
Mon 10:59:13 PM 27.0833 -82.2667 138° Southeast 93 107 6,900  Level Tampa TRACON
Mon 11:00:13 PM 27.0500 -82.2500 156° South 101 116 6,900 50 Level Tampa TRACON
Mon 11:01:13 PM 27.0333 -82.2500 180° South 88 101 7,000 100 Climbing Tampa TRACON
Mon 11:03:00 PM 26.9890 -82.2259 156° South  Level Estimated
Mon 11:10:00 PM 26.8641 -82.1002 158° South  Level FlightAware Approximate
Mon 11:11:00 PM 26.8386 -82.0884 158° South  Level FlightAware Approximate
Mon 11:12:00 PM 26.8130 -82.0767 158° South  Level FlightAware Approximate
Mon 11:13:00 PM 26.7875 -82.0649 158° South  Level FlightAware Approximate
Mon 11:14:00 PM 26.7619 -82.0532 158° South  Level FlightAware Approximate
Mon 11:15:00 PM 26.7363 -82.0415 158° South  Level FlightAware Approximate
Mon 11:16:00 PM 26.7107 -82.0298 158° South  Level FlightAware Approximate
Mon 11:17:00 PM 26.6852 -82.0180 158° South  Level FlightAware Approximate
Mon 11:18:00 PM 26.6596 -82.0063 158° South  Level FlightAware Approximate
Mon 11:19:00 PM 26.6340 -81.9946 158° South  Level FlightAware Approximate
Mon 11:20:00 PM 26.6085 -81.9829 158° South  Level FlightAware Approximate
Mon 11:21:00 PM 26.5829 -81.9712 158° South  Level FlightAware Approximate
Mon 11:22:00 PM 26.5573 -81.9595 158° South  Level FlightAware Approximate
Mon 11:23:00 PM 26.5317 -81.9478 158° South  Level FlightAware Approximate
Mon 11:24:00 PM 26.5062 -81.9361 158° South  Level FlightAware Approximate
Mon 11:25:00 PM 26.4803 -81.9254 160° South  Level FlightAware Approximate
Mon 11:26:00 PM 26.4543 -81.9150 160° South  Level FlightAware Approximate
Mon 11:27:00 PM 26.4282 -81.9046 160° South  Level FlightAware Approximate
Mon 11:28:00 PM 26.4032 -81.8919 152° Southeast  Level FlightAware Approximate
Mon 11:29:00 PM 26.3788 -81.8773 152° Southeast  Level FlightAware Approximate
Mon 11:30:00 PM 26.3545 -81.8627 152° Southeast  Level FlightAware Approximate
Mon 11:31:00 PM 26.3300 -81.8485 159° South  Level FlightAware Approximate
Mon 11:32:00 PM 26.3042 -81.8375 159° South  Level FlightAware Approximate
Mon 11:33:00 PM 26.2784 -81.8264 159° South  Level FlightAware Approximate
Mon 11:34:00 PM 26.2526 -81.8154 159° South  Level FlightAware Approximate
Mon 11:35:00 PM 26.2268 -81.8043 159° South  Level FlightAware Approximate
Mon 11:36:00 PM 26.2014 -81.7923 156° South  Level FlightAware Approximate
Mon 11:37:00 PM 26.1761 -81.7797 156° South  Level FlightAware Approximate
Mon 11:38:00 PM 26.1509 -81.7671 156° South  Level FlightAware Approximate
Mon 11:39:00 PM 26.1500 -81.7667 156° South  Level FlightAware Approximate
Mon 11:40:00 PM 26.1524 -81.7756 156° South  Level Estimated
Mon 11:41:00 PM 26.1524 -81.7756 156° South  Level Estimated
Mon 11:42:00 PM 26.1524 -81.7756 156° South  Level Estimated
Mon 11:43:00 PM 26.1524 -81.7756 156° South  Level Estimated
Mon 11:44:00 PM 26.1524 -81.7756 156° South  Level Estimated
Mon 11:45:00 PM 26.1524 -81.7756 156° South  Level Estimated
Mon 11:46:00 PM 26.1524 -81.7756 156° South  Level Estimated
Mon 11:47:00 PM 26.1524 -81.7756 156° South  Level Estimated
Mon 11:48:00 PM 26.1524 -81.7756 156° South  Level Estimated
Mon 11:49:00 PM 26.1524 -81.7756 156° South  Level Estimated
Mon 11:50:00 PM 26.1524 -81.7756 156° South  Level Estimated
Mon 11:51:00 PM 26.1524 -81.7756 156° South  Level Estimated
Mon 11:52:00 PM 26.1524 -81.7756 156° South  Level Estimated
Mon 11:53:00 PM 26.1524 -81.7756 156° South  Level Estimated

Login

Don't have an account? Register now (free) for customized features, flight alerts, and more!